Portada
METAR-TAF:

METAR-TAF

Aeroports :

Ko Samui, Tailàndia

latitud: 09-32-52N, longitud: 100-03-44E, altitud: 20 m

Observació

L'informe es va fer fa 6 hores i 36 minuts, a les 15:00 UTC
Vent 4 kt del Est/Nord-Est, variant entre Nord/Nord-Est i Est
Temperatura 27°C
Humitat 70%
Pressió 1014 hPa
Visibilitat 10 km o més
Escasses núvols a una alçada de 2000 ft

METAR: VTSM 111500Z 06004KT 020V090 9999 FEW020 27/21 Q1014 NOSIG

Hora: 04:36 (21:36 UTC)

Pronòstic

L'informe es va fer fa 4 hores i 36 minuts, a les 17:00 UTC
Pronòstic vàlid del 11 a les 18 UTC al 12 a les 18 UTC
Vent 5 kt del Est
Visibilitat 10 km o més
Escasses núvols a una alçada de 2000 ft

TAF: VTSM 111700Z 1118/1218 08005KT 9999 FEW020

Observacions i pronòstics meteorològics de més de 4000 aeroports (METAR i TAF).

Les estacions disponibles són els punts grocs i vermells al mapa.

Posi el ratolí al punt desitjat per veure el nom de l'estació.

Feu clic per veure les observacions i els pronòstics meteorològics.

Per canviar el mapa: feu clic els botons verds amb una creu de color negre per apropar; al botó verd amb un guió per allunyar la imatge; o en les fletxes verdes per a mapes adjacents.


METAR-TAF: